createdAt,value
2019-02-11T03:11:02.523Z,2.40
2019-02-11T03:16:06.392Z,2.40
2019-02-11T03:21:10.118Z,2.10
2019-02-11T03:26:13.927Z,2.10
2019-02-11T03:31:17.641Z,2.00
2019-02-11T03:36:21.368Z,2.00
2019-02-11T03:41:25.163Z,1.90
2019-02-11T03:46:29.131Z,1.80
2019-02-11T03:51:32.843Z,1.50
2019-02-11T03:56:36.744Z,1.50
2019-02-11T04:01:40.495Z,1.40
2019-02-11T04:06:44.527Z,1.50
2019-02-11T04:11:48.236Z,1.60
2019-02-11T04:16:52.203Z,1.70
2019-02-11T04:22:08.866Z,1.80
2019-02-11T04:27:12.568Z,1.90
2019-02-11T04:32:16.273Z,2.00
2019-02-11T04:37:21.085Z,2.10
2019-02-11T04:42:24.798Z,2.20
2019-02-11T04:47:28.507Z,2.30
2019-02-11T04:52:32.339Z,2.30
2019-02-11T04:57:36.301Z,2.40
2019-02-11T05:02:40.015Z,2.50
2019-02-11T05:07:43.719Z,2.60
2019-02-11T05:12:47.434Z,2.70
2019-02-11T05:17:51.230Z,2.80
2019-02-11T05:22:54.934Z,2.80
2019-02-11T05:27:58.651Z,2.90
2019-02-11T05:33:02.749Z,3.00
2019-02-11T05:38:06.631Z,3.00
2019-02-11T05:43:10.330Z,3.10
2019-02-11T05:48:14.159Z,3.10
2019-02-11T05:53:17.869Z,3.20
2019-02-11T05:58:21.584Z,3.20
2019-02-11T06:03:25.843Z,3.30
2019-02-11T06:08:29.678Z,3.20
2019-02-11T06:13:33.923Z,3.20
2019-02-11T06:18:37.719Z,3.30
2019-02-11T06:23:41.710Z,3.30
2019-02-11T06:28:45.538Z,3.30
2019-02-11T06:33:49.270Z,3.30
2019-02-11T06:38:52.982Z,3.30
2019-02-11T06:43:56.711Z,3.30
2019-02-11T06:49:00.451Z,3.30
2019-02-11T06:54:04.262Z,3.30
2019-02-11T06:59:08.066Z,3.30
2019-02-11T07:04:11.887Z,3.40
2019-02-11T07:09:16.206Z,3.40
2019-02-11T07:14:19.907Z,3.30
2019-02-11T07:19:23.712Z,3.40
2019-02-11T07:24:27.567Z,3.40
2019-02-11T07:29:31.694Z,3.40
2019-02-11T07:34:35.766Z,3.50
2019-02-11T07:39:39.743Z,3.60
2019-02-11T07:44:53.302Z,3.60
2019-02-11T07:49:57.164Z,3.80
2019-02-11T07:55:00.866Z,3.80
2019-02-11T08:00:04.867Z,3.90
2019-02-11T08:05:08.653Z,3.90
2019-02-11T08:10:12.435Z,3.90
2019-02-11T08:15:16.432Z,4.00
2019-02-11T08:20:20.238Z,4.00
2019-02-11T08:25:23.951Z,4.10
2019-02-11T08:30:27.662Z,4.10
2019-02-11T08:35:31.391Z,4.20
2019-02-11T08:40:35.139Z,4.20
2019-02-11T08:45:46.616Z,4.30
2019-02-11T08:50:44.378Z,4.30
2019-02-11T08:55:48.212Z,4.40
2019-02-11T09:00:51.931Z,4.40
2019-02-11T09:05:55.722Z,4.40
2019-02-11T09:10:59.871Z,4.30
2019-02-11T09:16:03.939Z,4.20
2019-02-11T09:21:07.722Z,4.30
2019-02-11T09:26:13.229Z,4.30
2019-02-11T09:31:17.195Z,4.40
2019-02-11T09:36:20.950Z,4.40
2019-02-11T09:41:24.674Z,4.50
2019-02-11T09:46:29.358Z,4.60
2019-02-11T09:51:35.211Z,4.60
2019-02-11T09:56:39.414Z,4.70
2019-02-11T10:01:43.690Z,4.60
2019-02-11T10:06:47.570Z,4.60
2019-02-11T10:11:51.274Z,4.60
2019-02-11T10:16:55.107Z,4.70
2019-02-11T10:21:58.814Z,4.80
2019-02-11T10:27:02.526Z,4.90
2019-02-11T10:32:06.419Z,4.90
2019-02-11T10:37:10.142Z,5.00
2019-02-11T10:42:13.859Z,4.90
2019-02-11T10:47:18.395Z,4.90
2019-02-11T10:52:22.135Z,4.90
2019-02-11T10:57:25.842Z,5.00
2019-02-11T11:02:29.640Z,5.10
2019-02-11T11:07:33.350Z,5.00
2019-02-11T11:12:37.071Z,4.90
2019-02-11T11:17:40.873Z,4.90
2019-02-11T11:22:44.689Z,4.80
2019-02-11T11:27:48.761Z,4.70
2019-02-11T11:32:52.547Z,4.50
2019-02-11T11:37:56.291Z,4.30
2019-02-11T11:43:00.091Z,4.40
2019-02-11T11:48:03.818Z,4.50
2019-02-11T11:53:07.526Z,4.60
2019-02-11T11:58:11.241Z,4.60
2019-02-11T12:03:14.955Z,4.40
2019-02-11T12:08:18.711Z,4.40
2019-02-11T12:13:23.701Z,4.50
2019-02-11T12:18:27.684Z,4.90
2019-02-11T12:23:31.487Z,5.00
2019-02-11T12:28:35.214Z,5.20
2019-02-11T12:33:38.947Z,5.20
2019-02-11T12:38:42.659Z,5.10
2019-02-11T12:43:46.371Z,5.20
2019-02-11T12:48:50.095Z,5.00
2019-02-11T12:53:53.880Z,4.90
2019-02-11T12:58:57.680Z,5.10
2019-02-11T13:04:01.564Z,5.00
2019-02-11T13:09:06.372Z,5.10
2019-02-11T13:14:10.189Z,5.00
2019-02-11T13:19:13.997Z,5.10
2019-02-11T13:24:17.787Z,4.90
2019-02-11T13:29:21.548Z,4.80
2019-02-11T13:34:25.300Z,4.70
2019-02-11T13:39:29.067Z,4.60
2019-02-11T13:44:33.033Z,4.50
2019-02-11T13:49:36.995Z,4.60
2019-02-11T13:54:40.919Z,4.50
2019-02-11T13:59:44.674Z,4.50
2019-02-11T14:04:48.388Z,4.50
2019-02-11T14:09:52.101Z,4.60
2019-02-11T14:14:55.933Z,4.60
2019-02-11T14:20:02.655Z,4.60
2019-02-11T14:25:06.631Z,4.50
2019-02-11T14:30:11.210Z,4.60
2019-02-11T14:35:15.182Z,4.50
2019-02-11T14:40:18.997Z,4.50
2019-02-11T14:45:23.861Z,4.50
2019-02-11T14:50:27.687Z,4.50
2019-02-11T14:55:31.515Z,4.60
2019-02-11T15:00:35.407Z,4.50
2019-02-11T15:05:39.134Z,4.50
2019-02-11T15:10:43.126Z,4.50
2019-02-11T15:15:46.883Z,4.40
2019-02-11T15:20:50.604Z,4.40
2019-02-11T15:30:59.739Z,4.30
2019-02-11T15:36:03.751Z,4.40
2019-02-11T15:41:07.546Z,4.40
2019-02-11T15:56:18.132Z,4.40
2019-02-11T16:21:35.757Z,4.20
2019-02-11T16:46:53.024Z,3.60
2019-02-11T17:02:03.487Z,3.50
2019-02-11T17:12:10.525Z,3.20
2019-02-11T17:42:30.779Z,3.00
2019-02-11T17:57:41.075Z,3.10
2019-02-11T18:02:44.858Z,3.00
2019-02-11T18:12:52.724Z,3.00
2019-02-11T18:23:00.228Z,3.00
2019-02-11T18:28:04.000Z,2.80
2019-02-11T18:43:15.273Z,2.90
2019-02-11T18:48:19.271Z,2.60
2019-02-11T18:53:23.114Z,2.50
2019-02-11T18:58:26.829Z,2.60
2019-02-11T19:03:30.543Z,2.50
2019-02-11T19:08:35.963Z,2.30
2019-02-11T19:13:40.302Z,2.20
2019-02-11T19:23:47.431Z,2.00
2019-02-11T19:28:51.246Z,2.00
2019-02-11T19:33:54.983Z,2.00
2019-02-11T19:38:59.387Z,1.90
2019-02-11T19:44:03.187Z,1.90
2019-02-11T19:49:06.980Z,1.90
2019-02-11T19:54:10.781Z,2.00
2019-02-11T19:59:14.606Z,1.90
2019-02-11T20:04:18.423Z,2.00
2019-02-11T20:09:23.423Z,1.90
2019-02-11T20:14:27.392Z,1.70
2019-02-11T20:19:31.116Z,1.90
2019-02-11T20:24:34.838Z,2.10
2019-02-11T20:29:38.557Z,2.00
2019-02-11T20:34:42.282Z,2.00
2019-02-11T20:39:46.271Z,2.00
2019-02-11T20:44:49.975Z,1.80
2019-02-11T20:49:54.001Z,1.70
2019-02-11T20:54:57.786Z,1.60
2019-02-11T21:00:01.612Z,1.60
2019-02-11T21:05:05.919Z,1.60
2019-02-11T21:10:10.830Z,1.50
2019-02-11T21:15:14.924Z,1.50
2019-02-11T21:20:21.567Z,1.70
2019-02-11T21:25:25.660Z,1.70
2019-02-11T21:30:29.628Z,1.70
2019-02-11T21:35:33.603Z,2.00
2019-02-11T21:40:37.644Z,1.80
2019-02-11T21:45:41.365Z,1.70
2019-02-11T21:55:48.564Z,1.80
2019-02-11T22:05:55.827Z,1.60
2019-02-11T22:10:59.949Z,1.70
2019-02-11T22:16:03.748Z,1.50
2019-02-11T22:21:07.475Z,1.40
2019-02-11T22:26:11.595Z,1.60
2019-02-11T22:31:15.380Z,1.30
2019-02-11T22:36:19.095Z,1.30
2019-02-11T22:41:22.859Z,1.30
2019-02-11T22:51:29.992Z,1.30
2019-02-11T22:56:33.787Z,1.10
2019-02-11T23:01:37.562Z,1.30
2019-02-11T23:06:41.349Z,1.50
2019-02-11T23:11:45.053Z,1.50
2019-02-11T23:16:49.036Z,1.40
2019-02-11T23:21:52.844Z,1.40
2019-02-11T23:26:56.563Z,1.40
2019-02-11T23:32:00.392Z,1.30
2019-02-11T23:37:04.111Z,1.40
2019-02-11T23:42:07.958Z,1.30
2019-02-11T23:47:12.054Z,1.40
2019-02-11T23:52:15.760Z,1.50
2019-02-11T23:57:19.731Z,1.50
